createdAt,value
2022-09-24T00:01:30.717Z,11.90
2022-09-24T00:04:01.647Z,12.17
2022-09-24T00:06:30.732Z,11.73
2022-09-24T00:08:58.086Z,13.17
2022-09-24T00:11:27.222Z,12.17
2022-09-24T00:13:55.927Z,12.17
2022-09-24T00:16:25.827Z,12.50
2022-09-24T00:18:53.693Z,12.17
2022-09-24T00:21:26.515Z,12.30
2022-09-24T00:23:57.053Z,11.67
2022-09-24T00:26:43.405Z,11.83
2022-09-24T00:29:12.473Z,11.77
2022-09-24T00:31:39.361Z,11.27
2022-09-24T00:34:06.883Z,11.93
2022-09-24T00:36:34.118Z,11.37
2022-09-24T00:39:01.255Z,11.07
2022-09-24T00:41:32.202Z,11.60
2022-09-24T00:43:59.575Z,12.43
2022-09-24T00:46:32.738Z,11.47
2022-09-24T00:49:19.025Z,12.00
2022-09-24T00:51:51.390Z,11.57
2022-09-24T00:54:24.469Z,12.00
2022-09-24T00:56:53.328Z,12.47
2022-09-24T00:59:23.559Z,12.30
2022-09-24T01:01:53.043Z,12.33
2022-09-24T01:04:21.331Z,13.13
2022-09-24T01:06:49.505Z,12.30
2022-09-24T01:09:19.070Z,13.43
2022-09-24T01:12:02.402Z,13.20
2022-09-24T01:14:50.165Z,12.47
2022-09-24T01:17:35.969Z,13.73
2022-09-24T01:20:25.057Z,12.90
2022-09-24T01:23:07.743Z,13.67
2022-09-24T01:25:58.638Z,13.43
2022-09-24T01:28:52.822Z,12.93
2022-09-24T01:31:34.472Z,12.23
2022-09-24T01:34:06.012Z,13.37
2022-09-24T01:36:36.769Z,12.57
2022-09-24T01:39:07.008Z,11.93
2022-09-24T01:41:35.369Z,12.17
2022-09-24T01:44:07.904Z,11.60
2022-09-24T01:46:38.861Z,10.47
2022-09-24T01:49:07.296Z,9.50
2022-09-24T01:51:50.989Z,8.60
2022-09-24T01:54:35.713Z,8.50
2022-09-24T01:57:15.856Z,6.83
2022-09-24T02:00:09.843Z,6.37
2022-09-24T02:02:45.887Z,5.30
2022-09-24T02:05:36.470Z,4.80
2022-09-24T02:08:09.061Z,4.10
2022-09-24T02:10:46.529Z,3.50
2022-09-24T02:13:15.778Z,2.90
2022-09-24T02:15:48.488Z,1.53
2022-09-24T02:18:18.533Z,1.87
2022-09-24T02:20:47.405Z,1.20
2022-09-24T02:23:17.016Z,1.30
2022-09-24T02:25:58.095Z,1.17
2022-09-24T02:28:26.284Z,1.00
2022-09-24T02:31:15.821Z,0.90
2022-09-24T02:34:05.694Z,0.90
2022-09-24T02:36:33.383Z,1.10
2022-09-24T02:39:00.463Z,0.60
2022-09-24T02:41:30.184Z,0.77
2022-09-24T02:43:57.710Z,0.80
2022-09-24T02:46:24.588Z,1.73
2022-09-24T02:48:51.458Z,0.70
2022-09-24T02:51:18.326Z,0.93
2022-09-24T02:53:45.351Z,0.90
2022-09-24T02:56:12.193Z,1.00
2022-09-24T02:58:39.299Z,0.90
2022-09-24T03:01:06.276Z,1.00
2022-09-24T03:03:33.322Z,1.20
2022-09-24T03:06:00.567Z,1.17
2022-09-24T03:08:27.971Z,1.03
2022-09-24T03:10:56.228Z,1.63
2022-09-24T03:13:23.319Z,0.90
2022-09-24T03:15:50.438Z,1.00
2022-09-24T03:18:17.368Z,1.13
2022-09-24T03:20:44.563Z,0.97
2022-09-24T03:23:11.371Z,1.10
2022-09-24T03:25:38.219Z,1.00
2022-09-24T03:28:05.320Z,0.93
2022-09-24T03:30:50.573Z,0.83
2022-09-24T03:33:17.517Z,1.17
2022-09-24T03:35:44.256Z,0.67
2022-09-24T03:38:11.000Z,1.00
2022-09-24T03:40:37.853Z,0.70
2022-09-24T03:43:04.613Z,1.00
2022-09-24T03:45:31.941Z,1.00
2022-09-24T03:47:58.663Z,1.20
2022-09-24T03:50:25.954Z,1.00
2022-09-24T03:52:52.723Z,0.87
2022-09-24T03:55:19.635Z,0.80
2022-09-24T03:57:46.491Z,0.80
2022-09-24T04:00:13.734Z,0.60
2022-09-24T04:02:41.202Z,1.10
2022-09-24T04:05:08.667Z,0.70
2022-09-24T04:07:35.546Z,1.10
2022-09-24T04:10:02.350Z,0.63
2022-09-24T04:12:29.683Z,0.60
2022-09-24T04:14:56.517Z,1.30
2022-09-24T04:17:23.495Z,0.90
2022-09-24T04:19:51.068Z,0.90
2022-09-24T04:22:17.839Z,0.90
2022-09-24T04:24:45.192Z,0.97
2022-09-24T04:27:11.915Z,0.73
2022-09-24T04:29:38.775Z,0.70
2022-09-24T04:32:05.678Z,0.67
2022-09-24T04:34:33.349Z,0.60
2022-09-24T04:37:00.144Z,0.77
2022-09-24T04:39:28.024Z,0.53
2022-09-24T04:41:54.935Z,0.33
2022-09-24T04:44:22.764Z,0.77
2022-09-24T04:46:51.427Z,0.60
2022-09-24T04:49:18.227Z,0.50
2022-09-24T04:51:45.072Z,0.80
2022-09-24T04:54:12.231Z,0.67
2022-09-24T04:56:38.997Z,0.40
2022-09-24T04:59:05.893Z,0.60
2022-09-24T05:01:32.939Z,0.40
2022-09-24T05:03:59.803Z,0.70
2022-09-24T05:06:26.609Z,0.60
2022-09-24T05:08:53.659Z,0.50
2022-09-24T05:11:20.439Z,1.00
2022-09-24T05:13:47.290Z,0.77
2022-09-24T05:16:14.573Z,0.63
2022-09-24T05:18:41.641Z,0.90
2022-09-24T05:21:08.450Z,0.70
2022-09-24T05:23:35.305Z,0.63
2022-09-24T05:26:20.742Z,0.70
2022-09-24T05:28:47.648Z,0.70
2022-09-24T05:31:14.516Z,0.50
2022-09-24T05:33:41.372Z,0.70
2022-09-24T05:36:08.515Z,0.57
2022-09-24T05:38:36.563Z,0.70
2022-09-24T05:41:05.721Z,0.77
2022-09-24T05:43:32.617Z,0.57
2022-09-24T05:45:59.419Z,0.70
2022-09-24T05:48:26.308Z,0.53
2022-09-24T05:50:55.567Z,0.77
2022-09-24T05:53:25.091Z,0.60
2022-09-24T05:55:51.933Z,0.47
2022-09-24T05:58:18.814Z,0.80
2022-09-24T06:00:45.996Z,0.67
2022-09-24T06:03:15.168Z,0.80
2022-09-24T06:05:50.494Z,0.70
2022-09-24T06:08:18.462Z,0.73
2022-09-24T06:10:46.513Z,0.77
2022-09-24T06:13:17.643Z,0.50
2022-09-24T06:15:45.403Z,0.47
2022-09-24T06:18:12.433Z,0.70
2022-09-24T06:20:40.192Z,0.80
2022-09-24T06:23:07.878Z,0.60
2022-09-24T06:25:34.797Z,0.53
2022-09-24T06:28:03.888Z,1.07
2022-09-24T06:30:34.818Z,0.70
2022-09-24T06:33:06.608Z,0.87
2022-09-24T06:35:37.616Z,0.90
2022-09-24T06:38:05.417Z,0.77
2022-09-24T06:40:37.095Z,0.80
2022-09-24T06:43:05.684Z,1.17
2022-09-24T06:45:32.763Z,1.00
2022-09-24T06:48:03.000Z,0.60
2022-09-24T06:50:31.983Z,0.70
2022-09-24T06:52:59.090Z,1.00
2022-09-24T06:55:27.236Z,1.43
2022-09-24T06:58:15.144Z,0.90
2022-09-24T07:00:43.239Z,0.90
2022-09-24T07:03:16.743Z,1.60
2022-09-24T07:05:44.044Z,0.70
2022-09-24T07:08:11.688Z,0.90
2022-09-24T07:10:42.794Z,0.60
2022-09-24T07:13:09.710Z,0.87
2022-09-24T07:15:36.548Z,1.20
2022-09-24T07:18:03.674Z,1.00
2022-09-24T07:20:30.745Z,1.23
2022-09-24T07:22:57.608Z,0.70
2022-09-24T07:25:24.713Z,1.50
2022-09-24T07:27:51.676Z,0.90
2022-09-24T07:30:18.606Z,1.07
2022-09-24T07:32:45.578Z,1.13
2022-09-24T07:35:12.333Z,0.70
2022-09-24T07:37:39.676Z,0.73
2022-09-24T07:40:07.147Z,1.07
2022-09-24T07:42:34.405Z,0.93
2022-09-24T07:45:01.663Z,1.03
2022-09-24T07:47:28.618Z,1.10
2022-09-24T07:49:55.338Z,0.97
2022-09-24T07:52:22.224Z,0.70
2022-09-24T07:54:49.723Z,0.67
2022-09-24T07:57:16.516Z,1.07
2022-09-24T07:59:44.856Z,1.00
2022-09-24T08:02:17.317Z,0.70
2022-09-24T08:04:45.249Z,1.00
2022-09-24T08:07:13.206Z,0.90
2022-09-24T08:09:40.283Z,1.40
2022-09-24T08:12:08.437Z,1.07
2022-09-24T08:14:35.183Z,0.77
2022-09-24T08:17:02.850Z,0.83
2022-09-24T08:19:31.732Z,0.83
2022-09-24T08:21:58.812Z,0.73
2022-09-24T08:24:26.024Z,0.97
2022-09-24T08:26:52.962Z,1.00
2022-09-24T08:29:19.757Z,0.90
2022-09-24T08:31:47.583Z,0.83
2022-09-24T08:34:14.662Z,0.93
2022-09-24T08:36:43.099Z,0.83
2022-09-24T08:39:10.597Z,0.73
2022-09-24T08:41:47.932Z,1.00
2022-09-24T08:44:47.822Z,0.73
2022-09-24T08:47:39.932Z,0.50
2022-09-24T08:50:11.757Z,1.10
2022-09-24T08:52:50.884Z,0.80
2022-09-24T08:55:27.787Z,1.03
2022-09-24T08:58:08.735Z,0.80
2022-09-24T09:00:41.798Z,0.50
2022-09-24T09:03:37.276Z,0.90
2022-09-24T09:06:09.583Z,0.90
2022-09-24T09:09:07.627Z,0.83
2022-09-24T09:11:39.166Z,1.00
2022-09-24T09:14:18.613Z,0.90
2022-09-24T09:17:02.366Z,1.03
2022-09-24T09:19:34.194Z,1.10
2022-09-24T09:22:08.366Z,1.20
2022-09-24T09:24:52.779Z,0.67
2022-09-24T09:27:20.967Z,0.97
2022-09-24T09:29:57.121Z,0.83
2022-09-24T09:32:32.981Z,0.87
2022-09-24T09:35:03.030Z,0.97
2022-09-24T09:37:37.561Z,0.90
2022-09-24T09:40:31.559Z,0.87
2022-09-24T09:43:02.978Z,1.37
2022-09-24T09:45:42.001Z,0.90
2022-09-24T09:48:14.130Z,0.90
2022-09-24T09:50:48.179Z,0.90
2022-09-24T09:53:23.190Z,1.13
2022-09-24T09:55:56.171Z,0.77
2022-09-24T09:58:26.302Z,1.23
2022-09-24T10:01:03.316Z,0.73
2022-09-24T10:03:33.842Z,1.20
2022-09-24T10:06:04.962Z,0.80
2022-09-24T10:08:32.400Z,0.83
2022-09-24T10:11:01.001Z,0.63
2022-09-24T10:13:28.734Z,1.10
2022-09-24T10:15:58.538Z,1.20
2022-09-24T10:18:43.742Z,0.67
2022-09-24T10:21:13.552Z,0.80
2022-09-24T10:23:44.323Z,1.20
2022-09-24T10:26:11.464Z,0.90
2022-09-24T10:29:05.125Z,0.80
2022-09-24T10:31:37.354Z,0.80
2022-09-24T10:34:18.449Z,0.97
2022-09-24T10:37:13.691Z,0.80
2022-09-24T10:39:40.993Z,1.43
2022-09-24T10:42:25.055Z,0.60
2022-09-24T10:44:53.720Z,0.80
2022-09-24T10:47:49.642Z,1.00
2022-09-24T10:50:28.781Z,1.07
2022-09-24T10:53:14.813Z,0.80
2022-09-24T10:56:02.469Z,0.90
2022-09-24T10:58:56.118Z,1.00
2022-09-24T11:01:33.303Z,0.73
2022-09-24T11:04:08.788Z,0.67
2022-09-24T11:07:09.624Z,0.53
2022-09-24T11:09:58.994Z,0.37
2022-09-24T11:12:36.890Z,0.80
2022-09-24T11:15:34.534Z,0.60
2022-09-24T11:18:40.418Z,1.00
2022-09-24T11:21:35.865Z,0.50
2022-09-24T11:24:19.332Z,0.70
2022-09-24T11:26:48.911Z,0.90
2022-09-24T11:29:37.215Z,0.83
2022-09-24T11:32:15.713Z,0.90
2022-09-24T11:35:21.667Z,0.80
2022-09-24T11:38:06.547Z,0.67
2022-09-24T11:40:52.697Z,0.90
2022-09-24T11:43:33.322Z,0.57
2022-09-24T11:46:24.592Z,0.80
2022-09-24T11:48:54.323Z,0.70
2022-09-24T11:52:03.078Z,0.60
2022-09-24T11:54:42.019Z,0.40
2022-09-24T11:57:16.581Z,0.57
2022-09-24T11:59:52.914Z,0.70
2022-09-24T12:03:11.248Z,0.50
2022-09-24T12:05:45.049Z,0.57
2022-09-24T12:08:32.597Z,0.80
2022-09-24T12:11:21.826Z,1.03
2022-09-24T12:14:13.787Z,0.70
2022-09-24T12:16:45.843Z,0.70
2022-09-24T12:19:21.410Z,0.83
2022-09-24T12:21:51.154Z,0.50
2022-09-24T12:24:34.806Z,0.83
2022-09-24T12:27:10.644Z,0.60
2022-09-24T12:30:25.570Z,0.77
2022-09-24T12:33:11.848Z,0.80
2022-09-24T12:36:20.889Z,1.13
2022-09-24T12:39:19.045Z,0.70
2022-09-24T12:41:54.883Z,0.70
2022-09-24T12:44:45.269Z,0.90
2022-09-24T12:47:25.315Z,0.97
2022-09-24T12:50:02.346Z,0.63
2022-09-24T12:52:39.389Z,0.97
2022-09-24T12:55:26.313Z,0.90
2022-09-24T12:58:06.483Z,0.83
2022-09-24T13:00:47.438Z,0.90
2022-09-24T13:03:34.681Z,1.00
2022-09-24T13:06:03.581Z,0.50
2022-09-24T13:08:40.288Z,0.40
2022-09-24T13:11:27.587Z,0.70
2022-09-24T13:14:12.155Z,0.50
2022-09-24T13:16:41.942Z,0.70
2022-09-24T13:19:35.060Z,0.70
2022-09-24T13:22:03.058Z,0.60
2022-09-24T13:24:45.909Z,1.00
2022-09-24T13:27:37.809Z,0.50
2022-09-24T13:30:17.236Z,0.53
2022-09-24T13:32:54.358Z,0.57
2022-09-24T13:35:27.456Z,0.50
2022-09-24T13:38:03.664Z,0.70
2022-09-24T13:40:37.341Z,0.50
2022-09-24T13:43:33.731Z,0.80
2022-09-24T13:46:02.067Z,0.50
2022-09-24T13:48:40.128Z,0.47
2022-09-24T13:51:13.247Z,0.80
2022-09-24T13:53:43.086Z,0.60
2022-09-24T13:56:16.833Z,0.57
2022-09-24T13:58:44.357Z,0.47
2022-09-24T14:01:13.964Z,0.83
2022-09-24T14:03:42.569Z,0.60
2022-09-24T14:06:12.162Z,0.70
2022-09-24T14:08:42.646Z,0.77
2022-09-24T14:11:19.293Z,0.60
2022-09-24T14:13:46.593Z,0.57
2022-09-24T14:16:19.141Z,0.60
2022-09-24T14:18:46.853Z,0.77
2022-09-24T14:21:21.844Z,0.60
2022-09-24T14:23:57.507Z,1.10
2022-09-24T14:26:32.158Z,0.50
2022-09-24T14:29:04.124Z,0.73
2022-09-24T14:31:31.132Z,0.60
2022-09-24T14:34:04.681Z,0.50
2022-09-24T14:36:36.112Z,0.60
2022-09-24T14:39:05.852Z,0.87
2022-09-24T14:41:35.803Z,0.77
2022-09-24T14:44:20.535Z,0.60
2022-09-24T14:46:54.347Z,0.50
2022-09-24T14:49:22.981Z,0.53
2022-09-24T14:52:30.955Z,1.00
2022-09-24T14:55:13.676Z,0.73
2022-09-24T14:57:46.034Z,0.70
2022-09-24T15:00:21.358Z,1.40
2022-09-24T15:03:03.161Z,0.67
2022-09-24T15:05:30.738Z,0.57
2022-09-24T15:08:09.358Z,0.87
2022-09-24T15:10:36.637Z,0.73
2022-09-24T15:13:13.773Z,0.70
2022-09-24T15:15:41.362Z,0.77
2022-09-24T15:18:12.025Z,0.70
2022-09-24T15:20:38.869Z,0.50
2022-09-24T15:23:06.047Z,0.60
2022-09-24T15:25:33.009Z,0.67
2022-09-24T15:28:01.477Z,0.30
2022-09-24T15:30:28.398Z,0.57
2022-09-24T15:32:56.366Z,0.40
2022-09-24T15:35:24.086Z,0.40
2022-09-24T15:37:52.013Z,0.50
2022-09-24T15:40:23.048Z,0.47
2022-09-24T15:42:50.757Z,0.37
2022-09-24T15:45:21.513Z,0.53
2022-09-24T15:47:49.841Z,0.60
2022-09-24T15:50:17.092Z,0.80
2022-09-24T15:52:57.067Z,0.50
2022-09-24T15:55:24.415Z,0.70
2022-09-24T15:57:51.328Z,0.43
2022-09-24T16:00:22.201Z,0.80
2022-09-24T16:02:55.249Z,0.63
2022-09-24T16:05:22.713Z,0.70
2022-09-24T16:07:49.958Z,0.50
2022-09-24T16:10:17.418Z,0.50
2022-09-24T16:12:44.336Z,0.50
2022-09-24T16:15:16.334Z,0.77
2022-09-24T16:17:43.420Z,0.63
2022-09-24T16:20:10.606Z,0.57
2022-09-24T16:22:37.535Z,0.60
2022-09-24T16:25:04.637Z,0.50
2022-09-24T16:27:34.049Z,0.80
2022-09-24T16:30:02.673Z,0.90
2022-09-24T16:32:29.555Z,0.60
2022-09-24T16:34:57.169Z,1.40
2022-09-24T16:37:24.991Z,0.87
2022-09-24T16:39:52.727Z,0.60
2022-09-24T16:42:19.691Z,0.70
2022-09-24T16:44:46.888Z,0.30
2022-09-24T16:47:17.708Z,0.70
2022-09-24T16:49:44.714Z,0.80
2022-09-24T16:52:11.773Z,0.83
2022-09-24T16:54:39.772Z,1.07
2022-09-24T16:57:06.831Z,0.60
2022-09-24T16:59:34.053Z,0.77
2022-09-24T17:02:01.714Z,0.30
2022-09-24T17:04:28.909Z,0.63
2022-09-24T17:06:57.382Z,0.70
2022-09-24T17:09:43.055Z,0.50
2022-09-24T17:12:12.898Z,0.40
2022-09-24T17:14:39.854Z,0.77
2022-09-24T17:17:07.241Z,0.50
2022-09-24T17:19:34.244Z,0.50
2022-09-24T17:22:01.543Z,0.50
2022-09-24T17:24:28.572Z,0.90
2022-09-24T17:26:56.727Z,0.87
2022-09-24T17:29:30.406Z,0.80
2022-09-24T17:31:59.000Z,0.43
2022-09-24T17:34:26.232Z,0.90
2022-09-24T17:36:53.015Z,0.60
2022-09-24T17:39:19.782Z,0.60
2022-09-24T17:41:46.881Z,0.70
2022-09-24T17:44:13.820Z,0.50
2022-09-24T17:46:40.719Z,0.80
2022-09-24T17:49:07.906Z,0.70
2022-09-24T17:51:39.437Z,0.40
2022-09-24T17:54:09.062Z,0.43
2022-09-24T17:56:38.872Z,0.83
2022-09-24T17:59:07.937Z,0.83
2022-09-24T18:01:37.282Z,0.63
2022-09-24T18:04:06.316Z,0.70
2022-09-24T18:06:36.774Z,0.60
2022-09-24T18:09:04.389Z,0.67
2022-09-24T18:11:34.291Z,0.27
2022-09-24T18:14:02.809Z,0.60
2022-09-24T18:16:32.692Z,0.50
2022-09-24T18:19:01.515Z,0.70
2022-09-24T18:21:29.579Z,0.80
2022-09-24T18:23:58.461Z,0.53
2022-09-24T18:26:28.246Z,0.60
2022-09-24T18:28:58.127Z,0.80
2022-09-24T18:31:31.026Z,0.53
2022-09-24T18:34:07.036Z,0.60
2022-09-24T18:36:36.722Z,0.77
2022-09-24T18:39:06.078Z,0.77
2022-09-24T18:41:33.378Z,1.43
2022-09-24T18:44:01.336Z,0.87
2022-09-24T18:46:30.892Z,0.93
2022-09-24T18:48:59.564Z,0.90
2022-09-24T18:51:34.204Z,1.20
2022-09-24T18:54:03.917Z,1.37
2022-09-24T18:56:31.731Z,1.43
2022-09-24T18:59:08.534Z,2.70
2022-09-24T19:01:37.219Z,1.70
2022-09-24T19:04:04.859Z,1.50
2022-09-24T19:06:34.926Z,1.60
2022-09-24T19:09:02.273Z,0.93
2022-09-24T19:11:31.714Z,0.70
2022-09-24T19:13:58.728Z,0.70
2022-09-24T19:16:25.831Z,0.50
2022-09-24T19:18:53.988Z,0.90
2022-09-24T19:21:25.763Z,1.00
2022-09-24T19:23:55.564Z,0.90
2022-09-24T19:26:26.012Z,1.00
2022-09-24T19:28:54.106Z,1.23
2022-09-24T19:31:24.652Z,2.10
2022-09-24T19:33:54.025Z,1.77
2022-09-24T19:36:22.315Z,1.50
2022-09-24T19:38:50.287Z,1.70
2022-09-24T19:41:24.972Z,1.03
2022-09-24T19:43:57.170Z,0.97
2022-09-24T19:46:26.495Z,1.00
2022-09-24T19:48:55.524Z,0.80
2022-09-24T19:51:25.411Z,0.83
2022-09-24T19:53:54.824Z,0.67
2022-09-24T19:56:24.752Z,0.80
2022-09-24T19:58:54.237Z,0.60
2022-09-24T20:01:23.164Z,0.50
2022-09-24T20:03:50.511Z,0.40
2022-09-24T20:06:22.879Z,0.70
2022-09-24T20:08:50.159Z,0.70
2022-09-24T20:11:20.506Z,0.80
2022-09-24T20:13:51.592Z,0.83
2022-09-24T20:16:21.040Z,1.10
2022-09-24T20:18:55.230Z,0.63
2022-09-24T20:21:23.152Z,0.77
2022-09-24T20:23:50.202Z,0.90
2022-09-24T20:26:35.767Z,0.90
2022-09-24T20:29:03.243Z,1.10
2022-09-24T20:31:30.584Z,1.00
2022-09-24T20:33:57.676Z,1.03
2022-09-24T20:36:25.306Z,0.97
2022-09-24T20:38:52.498Z,1.20
2022-09-24T20:41:22.276Z,0.93
2022-09-24T20:43:49.868Z,0.90
2022-09-24T20:46:24.451Z,1.00
2022-09-24T20:48:52.407Z,0.80
2022-09-24T20:51:21.566Z,0.90
2022-09-24T20:53:49.517Z,0.93
2022-09-24T20:56:17.666Z,0.90
2022-09-24T20:58:44.769Z,1.23
2022-09-24T21:01:12.130Z,1.23
2022-09-24T21:03:45.282Z,1.07
2022-09-24T21:06:15.377Z,0.90
2022-09-24T21:08:44.593Z,1.20
2022-09-24T21:11:14.194Z,1.10
2022-09-24T21:13:42.900Z,1.00
2022-09-24T21:16:10.247Z,1.20
2022-09-24T21:18:40.692Z,1.00
2022-09-24T21:21:11.672Z,0.83
2022-09-24T21:23:39.626Z,1.00
2022-09-24T21:26:13.275Z,0.83
2022-09-24T21:28:41.452Z,0.90
2022-09-24T21:31:08.458Z,0.90
2022-09-24T21:33:36.131Z,1.23
2022-09-24T21:36:05.108Z,0.80
2022-09-24T21:38:32.581Z,0.87
2022-09-24T21:41:01.617Z,0.70
2022-09-24T21:43:34.478Z,0.67
2022-09-24T21:46:05.354Z,0.90
2022-09-24T21:48:33.402Z,0.87
2022-09-24T21:51:13.981Z,0.83
2022-09-24T21:53:40.800Z,0.63
2022-09-24T21:56:07.710Z,0.70
2022-09-24T21:58:34.915Z,0.80
2022-09-24T22:01:07.411Z,0.60
2022-09-24T22:03:34.713Z,0.77
2022-09-24T22:06:03.496Z,1.00
2022-09-24T22:08:31.948Z,0.40
2022-09-24T22:11:09.873Z,0.63
2022-09-24T22:13:38.046Z,0.63
2022-09-24T22:16:13.047Z,0.70
2022-09-24T22:18:40.135Z,0.70
2022-09-24T22:21:09.422Z,0.77
2022-09-24T22:23:36.961Z,0.73
2022-09-24T22:26:04.719Z,0.70
2022-09-24T22:28:31.932Z,0.70
2022-09-24T22:31:03.057Z,0.50
2022-09-24T22:33:49.301Z,0.47
2022-09-24T22:36:16.250Z,0.70
2022-09-24T22:38:43.767Z,0.40
2022-09-24T22:41:12.100Z,0.70
2022-09-24T22:43:39.804Z,0.70
2022-09-24T22:46:09.810Z,0.60
2022-09-24T22:48:37.541Z,0.23
2022-09-24T22:51:06.047Z,0.20
2022-09-24T22:53:40.294Z,0.40
2022-09-24T22:56:08.883Z,0.30
2022-09-24T22:58:37.140Z,0.40
2022-09-24T23:01:22.670Z,0.50
2022-09-24T23:03:54.019Z,0.83
2022-09-24T23:06:21.566Z,0.57
2022-09-24T23:08:49.731Z,0.57
2022-09-24T23:11:19.500Z,0.60
2022-09-24T23:13:50.747Z,0.83
2022-09-24T23:16:26.298Z,0.70
2022-09-24T23:18:56.279Z,0.50
2022-09-24T23:21:25.121Z,0.40
2022-09-24T23:23:56.466Z,0.70
2022-09-24T23:26:25.498Z,0.50
2022-09-24T23:28:54.165Z,0.50
2022-09-24T23:31:27.617Z,0.40
2022-09-24T23:33:56.559Z,0.20
2022-09-24T23:36:24.584Z,0.30
2022-09-24T23:38:52.791Z,0.40
2022-09-24T23:41:21.309Z,0.40
2022-09-24T23:43:48.409Z,0.47
2022-09-24T23:46:15.683Z,0.40
2022-09-24T23:48:43.251Z,0.60
2022-09-24T23:51:10.784Z,0.37
2022-09-24T23:53:39.015Z,0.20
2022-09-24T23:56:07.027Z,0.47
2022-09-24T23:58:34.405Z,0.30
